Time;durP1;ratioP1;P1;durP2;ratioP2;P2;SDS_P1;SDS_P2;PMS_P1;PMS_P2;Temp;Humidity;BMP_temperature;BMP_pressure;BME280_temperature;BME280_humidity;BME280_pressure;Samples;Min_cycle;Max_cycle;Signal;HPM_P1;HPM_P2
2023/07/01 00:00:10;;;;;;;59.65;42.45;;;;;;;-142.57;100.00;115900.28;6218282;23;20015;-87
2023/07/01 00:02:48;;;;;;;55.78;40.97;;;;;;;-142.57;100.00;115900.28;6217825;23;20031;-85
2023/07/01 00:05:14;;;;;;;61.22;42.60;;;;;;;-142.57;100.00;115900.28;6217999;23;20015;-85
2023/07/01 00:07:40;;;;;;;54.67;41.88;;;;;;;-142.57;100.00;115900.28;6217986;23;20105;-84
2023/07/01 00:10:06;;;;;;;61.30;41.80;;;;;;;-142.57;100.00;115900.28;6217130;23;20071;-86
2023/07/01 00:12:31;;;;;;;57.33;42.50;;;;;;;-142.57;100.00;115900.28;6217600;23;20014;-84
2023/07/01 00:14:57;;;;;;;64.22;41.92;;;;;;;-142.57;100.00;115900.28;6217529;23;20087;-84
2023/07/01 00:17:23;;;;;;;63.33;42.63;;;;;;;-142.57;100.00;115900.28;6191023;23;20435;-86
2023/07/01 00:19:48;;;;;;;60.28;41.85;;;;;;;-142.57;100.00;115900.28;6217528;23;20019;-84
2023/07/01 00:22:14;;;;;;;57.35;41.33;;;;;;;-142.57;100.00;115900.28;6231098;23;20005;-84
2023/07/01 00:24:39;;;;;;;67.18;42.00;;;;;;;-142.57;100.00;115900.28;6231587;23;20017;-85
2023/07/01 00:27:06;;;;;;;59.20;40.38;;;;;;;-142.57;100.00;115900.28;6217526;23;20071;-85
2023/07/01 00:29:31;;;;;;;58.25;42.88;;;;;;;-142.57;100.00;115900.28;6217666;23;20043;-85
2023/07/01 00:31:57;;;;;;;64.45;40.60;;;;;;;-142.57;100.00;115900.28;6218230;23;20012;-84
2023/07/01 00:34:22;;;;;;;58.50;41.10;;;;;;;-142.57;100.00;115900.28;6217993;23;20301;-84
2023/07/01 00:36:48;;;;;;;56.20;40.25;;;;;;;-142.57;100.00;115900.28;6217630;23;20018;-84
2023/07/01 00:39:14;;;;;;;58.13;41.55;;;;;;;-142.57;100.00;115900.28;6190918;23;20017;-84
2023/07/01 00:41:39;;;;;;;59.22;40.45;;;;;;;-142.57;100.00;115900.28;6190778;23;20007;-85
2023/07/01 00:44:05;;;;;;;65.97;41.58;;;;;;;-142.57;100.00;115900.28;6218070;23;20009;-85
2023/07/01 00:46:32;;;;;;;60.67;39.53;;;;;;;-142.57;100.00;115900.28;6216906;23;20004;-84
2023/07/01 00:49:00;;;;;;;57.45;39.80;;;;;;;-142.57;100.00;115900.28;6191048;23;20009;-84
2023/07/01 00:51:27;;;;;;;53.08;40.00;;;;;;;-142.57;100.00;115900.28;6218262;23;20083;-86
2023/07/01 00:53:54;;;;;;;59.60;41.42;;;;;;;-142.57;100.00;115900.28;6190746;23;20008;-83
2023/07/01 00:56:19;;;;;;;59.08;42.03;;;;;;;-142.57;100.00;115900.28;6217814;23;20012;-84
2023/07/01 00:58:45;;;;;;;59.40;41.15;;;;;;;-142.57;100.00;115900.28;6228230;23;20028;-82
2023/07/01 01:01:16;;;;;;;59.10;41.80;;;;;;;-142.57;100.00;115900.28;6218529;23;20013;-85
2023/07/01 01:03:45;;;;;;;60.35;41.63;;;;;;;-142.57;100.00;115900.28;6216899;23;20035;-86
2023/07/01 01:06:19;;;;;;;60.85;39.65;;;;;;;-142.57;100.00;115900.28;6188597;23;20018;-85
2023/07/01 01:09:10;;;;;;;56.28;39.78;;;;;;;-142.57;100.00;115900.28;6215556;23;20013;-85
2023/07/01 01:11:40;;;;;;;61.83;40.67;;;;;;;-142.57;100.00;115900.28;6188936;23;20008;-83
2023/07/01 01:14:08;;;;;;;59.15;41.03;;;;;;;-142.57;100.00;115900.28;6215145;23;20009;-84
2023/07/01 01:16:35;;;;;;;62.15;41.28;;;;;;;-142.57;100.00;115900.28;6214927;23;20016;-85
2023/07/01 01:19:07;;;;;;;59.75;41.85;;;;;;;-142.57;100.00;115900.28;6215431;23;20016;-83
2023/07/01 01:21:34;;;;;;;61.40;40.07;;;;;;;-142.57;100.00;115900.28;6215201;23;20027;-83
2023/07/01 01:24:03;;;;;;;58.63;40.33;;;;;;;-142.57;100.00;115900.28;6215154;23;20508;-84
2023/07/01 01:26:37;;;;;;;58.17;40.00;;;;;;;-142.57;100.00;115900.28;6215304;23;20062;-84
2023/07/01 01:29:06;;;;;;;53.72;39.85;;;;;;;-142.57;100.00;115900.28;6188404;23;20016;-83
2023/07/01 01:31:33;;;;;;;64.25;42.15;;;;;;;-142.57;100.00;115900.28;6215185;23;20439;-87
2023/07/01 01:33:58;;;;;;;61.05;41.42;;;;;;;-142.57;100.00;115900.28;6213461;23;20012;-85
2023/07/01 01:36:50;;;;;;;56.22;40.78;;;;;;;-142.57;100.00;115900.28;6188533;23;20020;-83
2023/07/01 01:39:21;;;;;;;55.92;40.40;;;;;;;-142.57;100.00;115900.28;6215460;23;20040;-84
2023/07/01 01:41:49;;;;;;;59.92;40.85;;;;;;;-142.57;100.00;115900.28;6188375;23;20019;-85
2023/07/01 01:44:25;;;;;;;61.97;39.83;;;;;;;-142.57;100.00;115900.28;6188508;23;20016;-83
2023/07/01 01:46:51;;;;;;;54.25;40.00;;;;;;;-142.57;100.00;115900.28;6215493;23;20339;-85
2023/07/01 01:49:19;;;;;;;58.88;42.63;;;;;;;-142.57;100.00;115900.28;6215320;23;20008;-82
2023/07/01 01:51:45;;;;;;;60.22;42.63;;;;;;;-142.57;100.00;115900.28;6215889;23;20012;-83
2023/07/01 01:54:12;;;;;;;55.85;41.13;;;;;;;-142.57;100.00;115900.28;6215482;23;20009;-84
2023/07/01 01:56:38;;;;;;;62.20;43.95;;;;;;;-142.57;100.00;115900.28;6215643;23;20012;-84
2023/07/01 01:59:04;;;;;;;62.45;42.85;;;;;;;-142.57;100.00;115900.28;6188839;23;20090;-85
2023/07/01 02:01:30;;;;;;;60.88;42.20;;;;;;;-142.57;100.00;115900.28;6188784;23;20019;-84
2023/07/01 02:03:56;;;;;;;59.40;43.97;;;;;;;-142.57;100.00;115900.28;6215336;23;20012;-84
2023/07/01 02:06:22;;;;;;;61.83;43.72;;;;;;;-142.57;100.00;115900.28;6213454;23;20008;-84
2023/07/01 02:08:47;;;;;;;64.85;42.58;;;;;;;-142.57;100.00;115900.28;6189364;23;20087;-86
2023/07/01 02:11:13;;;;;;;62.63;45.75;;;;;;;-142.57;100.00;115900.28;6194809;23;20025;-82
2023/07/01 02:13:39;;;;;;;60.97;44.10;;;;;;;-142.57;100.00;115900.28;6197884;23;20004;-83
2023/07/01 02:16:04;;;;;;;61.55;42.10;;;;;;;-142.57;100.00;115900.28;6188469;23;20012;-82
2023/07/01 02:18:30;;;;;;;56.35;42.00;;;;;;;-142.57;100.00;115900.28;6190113;23;20020;-83
2023/07/01 02:20:56;;;;;;;61.85;43.42;;;;;;;-142.57;100.00;115900.28;6226770;23;20061;-85
2023/07/01 02:23:21;;;;;;;63.40;43.42;;;;;;;-142.57;100.00;115900.28;6188555;23;20016;-86
2023/07/01 02:25:47;;;;;;;59.88;43.13;;;;;;;-142.57;100.00;115900.28;6214637;23;20004;-85
2023/07/01 02:28:13;;;;;;;57.58;40.92;;;;;;;-142.57;100.00;115900.28;6216200;23;20009;-83
2023/07/01 02:30:39;;;;;;;63.38;42.70;;;;;;;-142.57;100.00;115900.28;6217574;23;20017;-84
2023/07/01 02:33:04;;;;;;;62.67;42.47;;;;;;;-142.57;100.00;115900.28;6216717;23;20095;-83
2023/07/01 02:35:30;;;;;;;61.25;41.92;;;;;;;-142.57;100.00;115900.28;6219468;23;20411;-85
2023/07/01 02:37:56;;;;;;;60.08;42.03;;;;;;;-142.57;100.00;115900.28;6222655;23;20013;-84
2023/07/01 02:40:21;;;;;;;58.38;40.35;;;;;;;-142.57;100.00;115900.28;6221962;23;20436;-84
2023/07/01 02:42:47;;;;;;;60.80;41.58;;;;;;;-142.57;100.00;115900.28;6224566;23;20036;-83
2023/07/01 02:45:13;;;;;;;57.92;42.30;;;;;;;-142.57;100.00;115900.28;6222140;23;20012;-85
2023/07/01 02:47:39;;;;;;;56.83;40.25;;;;;;;-142.57;100.00;115900.28;6223507;23;20009;-84
2023/07/01 02:50:05;;;;;;;57.30;40.10;;;;;;;-142.57;100.00;115900.28;6223253;23;20422;-84
2023/07/01 02:52:31;;;;;;;60.80;39.42;;;;;;;-142.57;100.00;115900.28;6196015;23;20019;-84
2023/07/01 02:54:57;;;;;;;55.33;38.03;;;;;;;-142.57;100.00;115900.28;6222645;23;20013;-84
2023/07/01 02:57:22;;;;;;;48.22;36.45;;;;;;;-142.57;100.00;115900.28;6219157;23;20019;-84
2023/07/01 02:59:48;;;;;;;50.78;36.85;;;;;;;-142.57;100.00;115900.28;6216691;23;20327;-83
2023/07/01 03:02:14;;;;;;;50.53;35.78;;;;;;;-142.57;100.00;115900.28;6216575;23;20004;-84
2023/07/01 03:04:40;;;;;;;49.80;36.08;;;;;;;-142.57;100.00;115900.28;6216998;23;20011;-85
2023/07/01 03:07:11;;;;;;;47.15;36.03;;;;;;;-142.57;100.00;115900.28;6215141;23;20012;-84
2023/07/01 03:09:36;;;;;;;50.13;36.42;;;;;;;-142.57;100.00;115900.28;6216831;23;20515;-84
2023/07/01 03:12:02;;;;;;;51.00;37.78;;;;;;;-142.57;100.00;115900.28;6165100;23;20040;-84
2023/07/01 03:14:28;;;;;;;54.58;37.20;;;;;;;-142.57;100.00;115900.28;6190526;23;20447;-84
2023/07/01 03:16:53;;;;;;;51.72;35.83;;;;;;;-142.57;100.00;115900.28;6190055;23;20099;-86
2023/07/01 03:19:19;;;;;;;57.17;38.67;;;;;;;-142.57;100.00;115900.28;6216404;23;20019;-85
2023/07/01 03:21:46;;;;;;;49.05;37.80;;;;;;;-142.57;100.00;115900.28;6216719;23;20039;-82
2023/07/01 03:24:14;;;;;;;59.17;39.13;;;;;;;-142.57;100.00;115900.28;6215205;23;20013;-85
2023/07/01 03:26:42;;;;;;;55.42;37.03;;;;;;;-142.57;100.00;115900.28;6215379;23;20013;-83
2023/07/01 03:29:08;;;;;;;51.70;36.25;;;;;;;-142.57;100.00;115900.28;6214700;23;20383;-85
2023/07/01 03:31:33;;;;;;;52.58;35.53;;;;;;;-142.57;100.00;115900.28;6214966;23;20047;-84
2023/07/01 03:33:59;;;;;;;50.95;34.88;;;;;;;-142.57;100.00;115900.28;6217041;23;20019;-84
2023/07/01 03:36:24;;;;;;;53.60;35.35;;;;;;;-142.57;100.00;115900.28;6190863;23;20013;-84
2023/07/01 03:38:50;;;;;;;48.70;34.53;;;;;;;-142.57;100.00;115900.28;6217521;23;20017;-85
2023/07/01 03:41:16;;;;;;;49.97;34.28;;;;;;;-142.57;100.00;115900.28;6222502;23;20095;-81
2023/07/01 03:43:41;;;;;;;55.95;35.75;;;;;;;-142.57;100.00;115900.28;6221833;23;20060;-83
2023/07/01 03:46:07;;;;;;;44.17;32.60;;;;;;;-142.57;100.00;115900.28;6216521;23;20394;-83
2023/07/01 03:48:33;;;;;;;40.47;28.83;;;;;;;-142.57;100.00;115900.28;6216199;23;20075;-84
2023/07/01 03:50:58;;;;;;;36.88;25.75;;;;;;;-142.57;100.00;115900.28;6216177;23;20016;-85
2023/07/01 03:53:23;;;;;;;33.10;23.55;;;;;;;-142.57;100.00;115900.28;6219239;23;20064;-84
2023/07/01 03:55:49;;;;;;;34.78;21.75;;;;;;;-142.57;100.00;115900.28;6217770;23;20015;-83
2023/07/01 03:58:21;;;;;;;28.58;21.20;;;;;;;-142.57;100.00;115900.28;6216436;23;20001;-85
2023/07/01 04:00:53;;;;;;;27.35;19.17;;;;;;;-142.57;100.00;115900.28;6201311;23;20024;-83
2023/07/01 04:03:23;;;;;;;26.95;18.75;;;;;;;-142.57;100.00;115900.28;6223233;23;20084;-84
2023/07/01 04:05:51;;;;;;;24.48;17.17;;;;;;;-142.57;100.00;115900.28;6216063;23;20441;-84
2023/07/01 04:08:16;;;;;;;29.08;16.88;;;;;;;-142.57;100.00;115900.28;6216012;23;20009;-85
2023/07/01 04:10:42;;;;;;;24.55;14.95;;;;;;;-142.57;100.00;115900.28;6216340;23;20013;-84
2023/07/01 04:13:07;;;;;;;21.38;14.65;;;;;;;-142.57;100.00;115900.28;6216133;23;20020;-84
2023/07/01 04:15:32;;;;;;;19.90;14.25;;;;;;;-142.57;100.00;115900.28;6215971;23;20032;-85
2023/07/01 04:17:58;;;;;;;23.38;14.68;;;;;;;-142.57;100.00;115900.28;6216083;23;20036;-84
2023/07/01 04:20:23;;;;;;;21.60;15.40;;;;;;;-142.57;100.00;115900.28;6216143;23;20010;-83
2023/07/01 04:22:49;;;;;;;20.75;14.45;;;;;;;-142.57;100.00;115900.28;6215792;23;20012;-84
2023/07/01 04:25:14;;;;;;;21.67;15.48;;;;;;;-142.57;100.00;115900.28;6216156;23;20001;-84
2023/07/01 04:27:44;;;;;;;24.27;16.42;;;;;;;-142.57;100.00;115900.28;6190893;23;20023;-83
2023/07/01 04:30:14;;;;;;;21.15;15.30;;;;;;;-142.57;100.00;115900.28;6217320;23;20012;-85
2023/07/01 04:32:40;;;;;;;22.63;16.23;;;;;;;-142.57;100.00;115900.28;6217136;23;20004;-89
2023/07/01 04:35:06;;;;;;;31.65;17.98;;;;;;;-142.57;100.00;115900.28;6218771;23;20099;-88
2023/07/01 04:37:32;;;;;;;24.83;17.17;;;;;;;-142.57;100.00;115900.28;6216988;23;20039;-87
2023/07/01 04:39:58;;;;;;;28.05;17.85;;;;;;;-142.57;100.00;115900.28;6217060;23;20008;-87
2023/07/01 04:42:23;;;;;;;26.13;16.67;;;;;;;-142.57;100.00;115900.28;6216834;23;20058;-91
2023/07/01 04:44:53;;;;;;;28.80;17.70;;;;;;;-142.57;100.00;115900.28;6216320;23;20008;-86
2023/07/01 04:47:23;;;;;;;25.13;17.67;;;;;;;-142.57;100.00;115900.28;6217118;23;20039;-90
2023/07/01 04:49:52;;;;;;;31.85;18.95;;;;;;;-142.57;100.00;115900.28;6215717;23;20013;-88
2023/07/01 04:52:23;;;;;;;29.38;18.55;;;;;;;-142.57;100.00;115900.28;6218386;23;20336;-88
2023/07/01 04:54:49;;;;;;;27.52;17.77;;;;;;;-142.57;100.00;115900.28;6223697;23;20016;-87
2023/07/01 04:57:15;;;;;;;37.90;20.05;;;;;;;-142.57;100.00;115900.28;6225801;23;20016;-90
2023/07/01 04:59:41;;;;;;;29.92;17.88;;;;;;;-142.57;100.00;115900.28;6227620;23;20032;-85
2023/07/01 05:02:08;;;;;;;26.75;16.90;;;;;;;-142.57;100.00;115900.28;6207517;23;20004;-84
2023/07/01 05:04:33;;;;;;;34.65;17.63;;;;;;;-142.57;100.00;115900.28;6212865;23;20248;-85
2023/07/01 05:06:59;;;;;;;33.40;17.35;;;;;;;-142.57;100.00;115900.28;6233792;23;20723;-87
2023/07/01 05:09:27;;;;;;;28.83;17.02;;;;;;;-142.57;100.00;115900.28;6231700;23;20008;-86
2023/07/01 05:11:57;;;;;;;31.83;18.13;;;;;;;-142.57;100.00;115900.28;6203819;23;20024;-85
2023/07/01 05:14:22;;;;;;;31.40;18.50;;;;;;;-142.57;100.00;115900.28;6199771;23;20336;-87
2023/07/01 05:16:48;;;;;;;24.95;16.90;;;;;;;-142.57;100.00;115900.28;6218910;23;20012;-83
2023/07/01 05:19:13;;;;;;;26.00;16.50;;;;;;;-142.57;100.00;115900.28;6217280;23;20005;-87
2023/07/01 05:21:50;;;;;;;30.50;17.15;;;;;;;-142.57;100.00;115900.28;6216945;23;20092;-81
2023/07/01 05:24:16;;;;;;;26.60;15.90;;;;;;;-142.57;100.00;115900.28;6217064;23;20004;-86
2023/07/01 05:26:49;;;;;;;27.65;17.45;;;;;;;-142.57;100.00;115900.28;6216570;23;20019;-79
2023/07/01 05:29:14;;;;;;;25.42;17.45;;;;;;;-142.57;100.00;115900.28;6217049;23;20035;-82
2023/07/01 05:31:40;;;;;;;23.70;16.77;;;;;;;-142.57;100.00;115900.28;6217702;23;20027;-83
2023/07/01 05:34:06;;;;;;;28.50;16.23;;;;;;;-142.57;100.00;115900.28;6217174;23;20384;-82
2023/07/01 05:36:32;;;;;;;29.25;17.17;;;;;;;-142.57;100.00;115900.28;6217292;23;20084;-83
2023/07/01 05:38:57;;;;;;;28.80;17.15;;;;;;;-142.57;100.00;115900.28;6216074;23;20004;-79
2023/07/01 05:41:23;;;;;;;29.00;15.50;;;;;;;-142.57;100.00;115900.28;6217614;23;20033;-79
2023/07/01 05:43:49;;;;;;;27.95;17.52;;;;;;;-142.57;100.00;115900.28;6216448;23;20012;-80
2023/07/01 05:46:15;;;;;;;28.23;18.02;;;;;;;-142.57;100.00;115900.28;6217484;23;20064;-85
2023/07/01 05:48:41;;;;;;;29.75;18.45;;;;;;;-142.57;100.00;115900.28;6217039;23;20013;-83
2023/07/01 05:51:07;;;;;;;29.83;18.67;;;;;;;-142.57;100.00;115900.28;6217717;23;20047;-87
2023/07/01 05:53:32;;;;;;;28.42;19.33;;;;;;;-142.57;100.00;115900.28;6218684;23;20012;-88
2023/07/01 05:55:58;;;;;;;30.00;18.73;;;;;;;-142.57;100.00;115900.28;6218159;23;20008;-84
2023/07/01 05:58:23;;;;;;;29.00;18.95;;;;;;;-142.57;100.00;115900.28;6218438;23;20053;-82
2023/07/01 06:00:52;;;;;;;24.75;17.80;;;;;;;-142.57;100.00;115900.28;6220732;23;20008;-79
2023/07/01 06:03:17;;;;;;;27.48;18.38;;;;;;;-142.57;100.00;115900.28;6216970;23;20092;-82
2023/07/01 06:05:43;;;;;;;28.33;17.85;;;;;;;-142.57;100.00;115900.28;6216268;23;20379;-84
2023/07/01 06:08:08;;;;;;;28.90;16.20;;;;;;;-142.57;100.00;115900.28;6217791;23;20009;-86
2023/07/01 06:10:34;;;;;;;25.80;16.08;;;;;;;-142.57;100.00;115900.28;6219947;23;20008;-89
2023/07/01 06:12:59;;;;;;;23.40;16.17;;;;;;;-142.57;100.00;115900.28;6226480;23;19996;-91
2023/07/01 06:15:25;;;;;;;21.77;15.07;;;;;;;-142.57;100.00;115900.28;6225541;23;20005;-86
2023/07/01 06:17:50;;;;;;;26.13;16.20;;;;;;;-142.57;100.00;115900.28;6198105;23;20076;-83
2023/07/01 06:20:16;;;;;;;25.05;16.00;;;;;;;-142.57;100.00;115900.28;6218965;23;20012;-87
2023/07/01 06:22:42;;;;;;;21.98;15.75;;;;;;;-142.57;100.00;115900.28;6223758;23;20009;-88
2023/07/01 06:25:10;;;;;;;23.65;16.48;;;;;;;-142.57;100.00;115900.28;6218811;23;20028;-85
2023/07/01 06:27:36;;;;;;;25.15;15.32;;;;;;;-142.57;100.00;115900.28;6220034;23;20328;-83
2023/07/01 06:30:03;;;;;;;25.10;15.75;;;;;;;-142.57;100.00;115900.28;6217154;23;20339;-84
2023/07/01 06:32:29;;;;;;;22.05;15.15;;;;;;;-142.57;100.00;115900.28;6220198;23;20059;-85
2023/07/01 06:34:56;;;;;;;23.80;14.45;;;;;;;-142.57;100.00;115900.28;6218003;23;20023;-89
2023/07/01 06:37:21;;;;;;;20.27;13.65;;;;;;;-142.57;100.00;115900.28;6191744;23;20037;-87
2023/07/01 06:39:47;;;;;;;18.55;11.52;;;;;;;-142.57;100.00;115900.28;6220297;23;20111;-86
2023/07/01 06:42:12;;;;;;;18.70;11.70;;;;;;;-142.57;100.00;115900.28;6217712;23;20439;-89
2023/07/01 06:44:38;;;;;;;16.58;11.07;;;;;;;-142.57;100.00;115900.28;6222093;23;20097;-87
2023/07/01 06:47:05;;;;;;;14.63;11.27;;;;;;;-142.57;100.00;115900.28;6218437;23;20013;-84
2023/07/01 06:49:33;;;;;;;16.08;10.43;;;;;;;-142.57;100.00;115900.28;6225229;23;20004;-84
2023/07/01 06:52:08;;;;;;;14.82;9.85;;;;;;;-142.57;100.00;115900.28;6181382;23;20013;-82
2023/07/01 06:54:34;;;;;;;16.77;10.45;;;;;;;-142.57;100.00;115900.28;6234080;23;20086;-81
2023/07/01 06:56:59;;;;;;;18.48;11.07;;;;;;;-142.57;100.00;115900.28;6225289;23;20043;-90
2023/07/01 06:59:25;;;;;;;16.27;10.85;;;;;;;-142.57;100.00;115900.28;6232818;23;20065;-87
2023/07/01 07:01:50;;;;;;;18.25;10.70;;;;;;;-142.57;100.00;115900.28;6238121;23;20008;-82
2023/07/01 07:04:19;;;;;;;24.90;10.65;;;;;;;-142.57;100.00;115900.28;6213347;23;20061;-84
2023/07/01 07:06:50;;;;;;;14.80;9.95;;;;;;;-142.57;100.00;115900.28;6236455;23;20017;-83
2023/07/01 07:09:16;;;;;;;8.40;6.23;;;;;;;-142.57;100.00;115900.28;6238470;23;20009;-81
2023/07/01 07:11:42;;;;;;;11.35;8.45;;;;;;;-142.57;100.00;115900.28;6211706;23;19997;-82
2023/07/01 07:14:08;;;;;;;12.88;8.18;;;;;;;-142.57;100.00;115900.28;6234423;23;20043;-80
2023/07/01 07:16:35;;;;;;;12.15;8.50;;;;;;;-142.57;100.00;115900.28;6235600;23;20019;-80
2023/07/01 07:19:06;;;;;;;15.88;9.20;;;;;;;-142.57;100.00;115900.28;6237223;23;20041;-80
2023/07/01 07:21:32;;;;;;;13.85;9.00;;;;;;;-142.57;100.00;115900.28;6236791;23;20012;-82
2023/07/01 07:24:00;;;;;;;13.50;8.77;;;;;;;-142.57;100.00;115900.28;6229706;23;20013;-88
2023/07/01 07:26:28;;;;;;;15.90;7.82;;;;;;;-142.57;100.00;115900.28;6223250;23;20410;-86
2023/07/01 07:28:54;;;;;;;13.27;7.97;;;;;;;-142.57;100.00;115900.28;6235575;23;19997;-79
2023/07/01 07:31:19;;;;;;;13.20;7.68;;;;;;;-142.57;100.00;115900.28;6237512;23;20031;-79
2023/07/01 07:33:45;;;;;;;15.85;7.70;;;;;;;-142.57;100.00;115900.28;6232559;23;20060;-81
2023/07/01 07:36:11;;;;;;;12.23;7.32;;;;;;;-142.57;100.00;115900.28;6224618;23;20028;-81
2023/07/01 07:38:36;;;;;;;11.07;6.78;;;;;;;-142.57;100.00;115900.28;6173771;23;20013;-85
2023/07/01 07:41:03;;;;;;;12.57;7.10;;;;;;;-142.57;100.00;115900.28;6221449;23;20032;-88
2023/07/01 07:43:31;;;;;;;12.52;7.47;;;;;;;-142.57;100.00;115900.28;6232120;23;20068;-81
2023/07/01 07:45:57;;;;;;;12.52;7.30;;;;;;;-142.57;100.00;115900.28;6230139;23;20017;-84
2023/07/01 07:48:22;;;;;;;10.90;7.20;;;;;;;-142.57;100.00;115900.28;6199223;23;20019;-86
2023/07/01 07:50:49;;;;;;;10.73;6.78;;;;;;;-142.57;100.00;115900.28;6229540;23;20067;-88
2023/07/01 07:53:15;;;;;;;10.07;6.57;;;;;;;-142.57;100.00;115900.28;6226314;23;20019;-88
2023/07/01 07:55:42;;;;;;;9.77;6.32;;;;;;;-142.57;100.00;115900.28;6225585;23;20336;-85
2023/07/01 07:58:09;;;;;;;13.27;7.30;;;;;;;-142.57;100.00;115900.28;6222144;23;20009;-86
2023/07/01 08:00:35;;;;;;;10.57;7.50;;;;;;;-142.57;100.00;115900.28;6220947;23;20009;-82
2023/07/01 08:03:00;;;;;;;13.55;7.45;;;;;;;-142.57;100.00;115900.28;6222457;23;20071;-89
2023/07/01 08:05:31;;;;;;;16.83;7.28;;;;;;;-142.57;100.00;115900.28;6222363;23;20008;-86
2023/07/01 08:07:57;;;;;;;14.37;7.47;;;;;;;-142.57;100.00;115900.28;6221876;23;20023;-88
2023/07/01 08:10:23;;;;;;;12.65;7.43;;;;;;;-142.57;100.00;115900.28;6221342;23;20017;-80
2023/07/01 08:12:49;;;;;;;9.07;6.60;;;;;;;-142.57;100.00;115900.28;6223941;23;20019;-83
2023/07/01 08:15:15;;;;;;;9.15;6.13;;;;;;;-142.57;100.00;115900.28;6224646;23;20008;-84
2023/07/01 08:17:41;;;;;;;13.32;7.13;;;;;;;-142.57;100.00;115900.28;6225265;23;20013;-81
2023/07/01 08:20:06;;;;;;;13.07;7.05;;;;;;;-142.57;100.00;115900.28;6224026;23;20023;-84
2023/07/01 08:22:37;;;;;;;12.90;7.07;;;;;;;-142.57;100.00;115900.28;6226796;23;20045;-86
2023/07/01 08:25:27;;;;;;;10.30;6.47;;;;;;;-142.57;100.00;115900.28;6229923;22;20055;-89
2023/07/01 08:28:19;;;;;;;11.40;6.75;;;;;;;-142.57;100.00;115900.28;6163453;23;20484;-89
2023/07/01 08:30:53;;;;;;;10.95;7.05;;;;;;;-142.57;100.00;115900.28;6170537;23;20014;-89
2023/07/01 08:38:39;;;;;;;11.23;7.63;;;;;;;-142.57;100.00;115900.28;6293086;22;20284;-86
2023/07/01 08:41:12;;;;;;;9.85;6.50;;;;;;;-142.57;100.00;115900.28;6266486;22;19999;-89
2023/07/01 08:43:39;;;;;;;15.45;7.93;;;;;;;-142.57;100.00;115900.28;6294423;22;20018;-87
2023/07/01 08:46:10;;;;;;;14.90;8.15;;;;;;;-142.57;100.00;115900.28;6243081;22;20026;-89
2023/07/01 08:48:39;;;;;;;12.10;8.25;;;;;;;-142.57;100.00;115900.28;6296287;22;20008;-88
2023/07/01 08:51:25;;;;;;;13.25;7.70;;;;;;;-142.57;100.00;115900.28;6236955;22;20007;-87
2023/07/01 08:53:52;;;;;;;14.32;7.63;;;;;;;-142.57;100.00;115900.28;6295479;22;20008;-84
2023/07/01 08:56:38;;;;;;;16.35;10.50;;;;;;;-142.57;100.00;115900.28;6298680;22;20016;-86
2023/07/01 08:59:07;;;;;;;13.95;9.65;;;;;;;-142.57;100.00;115900.28;6282402;22;20016;-89
2023/07/01 09:01:39;;;;;;;17.83;9.88;;;;;;;-142.57;100.00;115900.28;6286282;22;20007;-89
2023/07/01 09:04:13;;;;;;;12.48;9.43;;;;;;;-142.57;100.00;115900.28;6259576;22;20016;-90
2023/07/01 09:06:45;;;;;;;15.45;9.35;;;;;;;-142.57;100.00;115900.28;6284136;22;20031;-87
2023/07/01 09:09:11;;;;;;;16.08;9.35;;;;;;;-142.57;100.00;115900.28;6255149;22;20498;-86
2023/07/01 09:11:37;;;;;;;12.82;9.93;;;;;;;-142.57;100.00;115900.28;6233852;22;20016;-88
2023/07/01 09:14:03;;;;;;;15.25;10.05;;;;;;;-142.57;100.00;115900.28;6257376;22;20035;-90
2023/07/01 09:16:40;;;;;;;13.93;9.02;;;;;;;-142.57;100.00;115900.28;6258041;22;20388;-88
2023/07/01 09:19:16;;;;;;;13.07;8.80;;;;;;;-142.57;100.00;115900.28;6256655;22;20083;-90
2023/07/01 09:21:51;;;;;;;13.30;9.80;;;;;;;-142.57;100.00;115900.28;6287876;22;20004;-88
2023/07/01 09:24:38;;;;;;;13.82;9.00;;;;;;;-142.57;100.00;115900.28;6244303;22;20016;-91
2023/07/01 09:27:55;;;;;;;13.38;8.63;;;;;;;-142.57;100.00;115900.28;6278262;22;20023;-90
2023/07/01 09:31:17;;;;;;;14.95;9.55;;;;;;;-142.57;100.00;115900.28;6213579;22;20030;-89
2023/07/01 09:42:58;;;;;;;16.17;10.43;;;;;;;-142.57;100.00;115900.28;6285197;22;20050;-91
2023/07/01 09:46:18;;;;;;;15.52;10.73;;;;;;;-142.57;100.00;115900.28;6139721;23;20024;-92
2023/07/01 09:49:22;;;;;;;15.13;10.52;;;;;;;-142.57;100.00;115900.28;6110913;23;20025;-90
2023/07/01 09:58:03;;;;;;;18.85;12.18;;;;;;;-142.57;100.00;115900.28;6285770;22;20469;-90
2023/07/01 10:00:30;;;;;;;15.88;10.68;;;;;;;-142.57;100.00;115900.28;6256213;22;20034;-88
2023/07/01 10:02:56;;;;;;;18.23;12.35;;;;;;;-142.57;100.00;115900.28;6283478;22;20439;-89
2023/07/01 10:05:21;;;;;;;17.77;11.65;;;;;;;-142.57;100.00;115900.28;6282962;22;20018;-88
2023/07/01 10:07:47;;;;;;;17.55;12.13;;;;;;;-142.57;100.00;115900.28;6283574;22;20034;-90
2023/07/01 10:10:20;;;;;;;19.52;12.68;;;;;;;-142.57;100.00;115900.28;6245587;22;20012;-89
2023/07/01 10:12:48;;;;;;;26.30;14.73;;;;;;;-142.57;100.00;115900.28;6223931;23;20374;-89
2023/07/01 10:15:16;;;;;;;23.30;14.38;;;;;;;-142.57;100.00;115900.28;6252671;23;20071;-90
2023/07/01 10:17:54;;;;;;;23.90;15.68;;;;;;;-142.57;100.00;115900.28;6252275;23;20009;-91
2023/07/01 10:20:26;;;;;;;19.48;13.40;;;;;;;-142.57;100.00;115900.28;6253812;23;20012;-90
2023/07/01 10:22:56;;;;;;;21.98;13.73;;;;;;;-142.57;100.00;115900.28;6254639;23;20015;-84
2023/07/01 10:25:32;;;;;;;15.20;10.43;;;;;;;-142.57;100.00;115900.28;6273620;22;19988;-90
2023/07/01 10:27:59;;;;;;;18.95;11.07;;;;;;;-142.57;100.00;115900.28;6274091;22;20012;-89
2023/07/01 10:30:26;;;;;;;16.17;9.82;;;;;;;-142.57;100.00;115900.28;6273767;22;20020;-91
2023/07/01 10:32:51;;;;;;;14.80;9.82;;;;;;;-142.57;100.00;115900.28;6233743;22;20046;-90
2023/07/01 10:35:17;;;;;;;12.63;9.25;;;;;;;-142.57;100.00;115900.28;6251479;23;20010;-88
2023/07/01 10:38:04;;;;;;;10.32;8.18;;;;;;;-142.57;100.00;115900.28;6199437;23;20094;-88
2023/07/01 10:40:29;;;;;;;10.93;8.20;;;;;;;-142.57;100.00;115900.28;6233772;23;20026;-87
2023/07/01 10:43:18;;;;;;;12.00;7.32;;;;;;;-142.57;100.00;115900.28;6250556;23;20335;-88
2023/07/01 10:45:43;;;;;;;9.10;5.68;;;;;;;-142.57;100.00;115900.28;6241827;23;20427;-85
2023/07/01 10:48:14;;;;;;;8.55;6.15;;;;;;;-142.57;100.00;115900.28;6252448;23;20059;-85
2023/07/01 10:51:00;;;;;;;9.25;5.90;;;;;;;-142.57;100.00;115900.28;6255030;23;20470;-90
2023/07/01 10:53:28;;;;;;;8.30;5.97;;;;;;;-142.57;100.00;115900.28;6241426;22;19996;-91
2023/07/01 10:56:13;;;;;;;8.43;5.60;;;;;;;-142.57;100.00;115900.28;6275055;22;19993;-90
2023/07/01 10:58:40;;;;;;;8.10;5.72;;;;;;;-142.57;100.00;115900.28;6250005;22;20012;-91
2023/07/01 11:01:06;;;;;;;11.68;6.57;;;;;;;-142.57;100.00;115900.28;6272724;22;20004;-88
2023/07/01 11:03:38;;;;;;;9.93;5.57;;;;;;;-142.57;100.00;115900.28;6273818;22;20035;-85
2023/07/01 11:06:11;;;;;;;8.82;5.97;;;;;;;-142.57;100.00;115900.28;6274953;22;20034;-86
2023/07/01 11:08:53;;;;;;;;;;;;;;;-142.57;100.00;115900.28;6274455;23;20012;-85
2023/07/01 11:11:33;;;;;;;5.78;4.38;;;;;;;-142.57;100.00;115900.28;6273093;23;19911;-84
2023/07/01 11:14:08;;;;;;;7.82;3.85;;;;;;;-142.57;98.91;115900.28;6271486;23;20450;-86
2023/07/01 11:16:38;;;;;;;7.18;4.45;;;;;;;-142.57;99.23;115900.28;6219389;23;20000;-85